»·PEaware :: SWA1177 KLAX-KDEN

SWA1177 :: KLAX-KDEN

FLIGHT INFORMATION

Flight Status: Arrived
Operator:
Southwest Airlines
More flights by this operator :: More flights under this callsign
Pilot: Kevin M. (7)
Aircraft: BOEING 737-800
(B738)
More flights by this aircraft type
Origin: KLAX Los Angeles Intl
United States
Destination: KDEN Denver Intl
United States
More flights between these airports :: More routes between these airports
Route: +LAXX1 TRM J236 TBC J128 HBU CREDE3
File this flight plan on PilotEdge
Remarks: Unable RNAV SIDs from LAX
Altitude:
(Current/Filed)
35,000ft
Speed:
(Current/Filed)
470kts
Departed: 06-Dec-18 09:03 AM
Arrived: 06-Dec-18 10:50 AM
Distance/Time
Traveled:
747nm/1:47
Distance/Time
To Go:
Arrived

Flight Plot

Page will automatically refresh every two minutes.

Flight plan parsing failed; only flown route is shown


Map Options




Map Legend


Flown Route
Filed Route
Departure Airport
Arrival Airport
Navaid (VOR, NDB)
Fix

Horizontal Profiles

Position Reports

Time Latitude Longitude Heading Altitude Ground
Speed
06-Dec-18 08:43 33.946833 -118.400678 264 116ft 0kts
06-Dec-18 08:44 33.946833 -118.400678 264 116ft 0kts
06-Dec-18 08:45 33.946833 -118.400678 264 116ft 0kts
06-Dec-18 08:46 33.946833 -118.400678 264 116ft 0kts
06-Dec-18 08:47 33.946833 -118.400678 264 116ft 0kts
06-Dec-18 08:48 33.946833 -118.400678 264 116ft 0kts
06-Dec-18 08:49 33.946833 -118.400678 264 116ft 0kts
06-Dec-18 08:50 33.946833 -118.400678 264 116ft 0kts
06-Dec-18 08:51 33.946833 -118.400678 264 116ft 0kts
06-Dec-18 08:52 33.946833 -118.400678 264 116ft 0kts
06-Dec-18 08:53 33.947003 -118.400303 258 116ft 1kts
06-Dec-18 08:54 33.946804 -118.400102 356 116ft 0kts
06-Dec-18 08:55 33.946804 -118.400102 356 116ft 0kts
06-Dec-18 08:56 33.946804 -118.400102 356 116ft 0kts
06-Dec-18 08:57 33.949069 -118.401885 260 116ft 18kts
06-Dec-18 08:58 33.948115 -118.411008 264 122ft 33kts
06-Dec-18 08:59 33.946851 -118.422146 264 116ft 34kts
06-Dec-18 09:00 33.945820 -118.433265 265 104ft 28kts
06-Dec-18 09:01 33.946723 -118.434706 55 106ft 9kts
06-Dec-18 09:02 33.949306 -118.411427 77 316ft 154kts
06-Dec-18 09:03 33.952911 -118.354337 104 2097ft 207kts
06-Dec-18 09:04 33.917255 -118.287227 122 3906ft 251kts
06-Dec-18 09:05 33.877615 -118.218502 124 6456ft 258kts
06-Dec-18 09:06 33.837009 -118.148099 126 8955ft 266kts
06-Dec-18 09:07 33.793600 -118.072848 127 10835ft 297kts
06-Dec-18 09:08 33.774531 -117.965073 91 11197ft 379kts
06-Dec-18 09:09 33.767196 -117.837742 98 13102ft 393kts
06-Dec-18 09:11 33.756927 -117.705030 99 15229ft 406kts
06-Dec-18 09:12 33.746288 -117.568892 99 17284ft 420kts
06-Dec-18 09:13 33.735140 -117.428054 99 19176ft 435kts
06-Dec-18 09:14 33.723569 -117.283474 100 20953ft 449kts
06-Dec-18 09:15 33.711343 -117.132744 100 22580ft 462kts
06-Dec-18 09:16 33.698495 -116.976653 100 23913ft 478kts
06-Dec-18 09:17 33.685032 -116.815774 101 25274ft 493kts
06-Dec-18 09:18 33.670949 -116.650281 101 26643ft 505kts
06-Dec-18 09:19 33.656328 -116.481138 101 27920ft 517kts
06-Dec-18 09:20 33.641564 -116.312810 102 29502ft 518kts
06-Dec-18 09:21 33.656996 -116.140189 71 30916ft 540kts
06-Dec-18 09:22 33.741948 -115.991600 52 32214ft 547kts
06-Dec-18 09:23 33.836987 -115.849309 51 33437ft 548kts
06-Dec-18 09:24 33.932211 -115.707369 51 34612ft 546kts
06-Dec-18 09:25 34.026968 -115.566349 51 35129ft 543kts
06-Dec-18 09:26 34.119738 -115.428508 51 35137ft 544kts
06-Dec-18 09:27 34.213584 -115.289368 51 35120ft 543kts
06-Dec-18 09:28 34.308980 -115.148072 51 35115ft 546kts
06-Dec-18 09:29 34.405891 -115.004767 50 35116ft 558kts
06-Dec-18 09:30 34.504831 -114.858695 50 35120ft 561kts
06-Dec-18 09:31 34.603505 -114.713232 50 35124ft 562kts
06-Dec-18 09:31 34.686054 -114.591701 50 35128ft 562kts
06-Dec-18 09:33 34.793752 -114.415462 64 35143ft 560kts
06-Dec-18 09:33 34.845659 -114.282808 65 35127ft 559kts
06-Dec-18 09:34 34.914897 -114.114691 65 35126ft 555kts
06-Dec-18 09:36 34.994657 -113.921824 65 35125ft 542kts
06-Dec-18 09:36 35.050706 -113.786699 64 35125ft 535kts
06-Dec-18 09:37 35.115789 -113.630233 64 35116ft 536kts
06-Dec-18 09:38 35.182651 -113.469974 64 35120ft 537kts
06-Dec-18 09:39 35.249028 -113.311402 64 35110ft 536kts
06-Dec-18 09:40 35.316988 -113.149512 64 35127ft 537kts
06-Dec-18 09:41 35.384922 -112.988158 64 35147ft 540kts
06-Dec-18 09:42 35.454595 -112.823183 63 35147ft 551kts
06-Dec-18 09:43 35.525376 -112.656137 63 35151ft 553kts
06-Dec-18 09:44 35.596286 -112.489279 63 35165ft 553kts
06-Dec-18 09:45 35.666756 -112.324001 63 35167ft 553kts
06-Dec-18 09:46 35.738037 -112.157394 63 35173ft 552kts
06-Dec-18 09:47 35.809785 -111.990154 63 35177ft 553kts
06-Dec-18 09:48 35.881567 -111.823340 62 35181ft 553kts
06-Dec-18 09:49 35.953409 -111.656871 62 35184ft 553kts
06-Dec-18 09:50 36.025601 -111.490079 62 35188ft 553kts
06-Dec-18 09:51 36.097337 -111.324744 62 35193ft 553kts
06-Dec-18 09:52 36.179648 -111.171088 51 35436ft 552kts
06-Dec-18 09:53 36.268113 -111.016462 53 35918ft 555kts
06-Dec-18 09:54 36.358074 -110.861529 52 36401ft 559kts
06-Dec-18 09:55 36.448575 -110.705747 52 36913ft 560kts
06-Dec-18 09:56 36.539244 -110.549245 54 37207ft 561kts
06-Dec-18 09:57 36.624401 -110.388412 55 37213ft 561kts
06-Dec-18 09:58 36.708532 -110.230679 55 37238ft 561kts
06-Dec-18 09:59 36.794646 -110.069506 55 37267ft 561kts
06-Dec-18 10:00 36.881098 -109.908054 54 37277ft 560kts
06-Dec-18 10:01 36.965582 -109.750697 54 37292ft 558kts
06-Dec-18 10:02 37.050819 -109.592298 54 37293ft 542kts
06-Dec-18 10:03 37.133427 -109.439130 54 37285ft 528kts
06-Dec-18 10:04 37.213896 -109.290319 55 37278ft 530kts
06-Dec-18 10:05 37.296640 -109.137556 54 37269ft 533kts
06-Dec-18 10:06 37.380295 -108.983489 53 37230ft 539kts
06-Dec-18 10:07 37.464890 -108.828047 53 37221ft 540kts
06-Dec-18 10:08 37.549860 -108.672280 53 37224ft 540kts
06-Dec-18 10:09 37.634743 -108.517019 52 37227ft 540kts
06-Dec-18 10:10 37.720237 -108.361000 52 37218ft 540kts
06-Dec-18 10:11 37.802505 -108.211289 53 37191ft 541kts
06-Dec-18 10:12 37.888229 -108.055562 53 37193ft 540kts
06-Dec-18 10:13 37.974067 -107.899982 52 37196ft 541kts
06-Dec-18 10:14 38.060216 -107.744195 52 37199ft 540kts
06-Dec-18 10:15 38.141825 -107.596937 52 37201ft 540kts
06-Dec-18 10:16 38.228315 -107.441201 52 37218ft 540kts
06-Dec-18 10:17 38.312497 -107.290042 52 37221ft 540kts
06-Dec-18 10:18 38.398685 -107.135564 52 37225ft 540kts
06-Dec-18 10:19 38.488802 -106.984993 38 37237ft 535kts
06-Dec-18 10:20 38.589026 -106.852988 43 37232ft 539kts
06-Dec-18 10:21 38.690906 -106.713190 43 37219ft 537kts
06-Dec-18 10:22 38.792507 -106.573286 43 37200ft 539kts
06-Dec-18 10:23 38.894085 -106.432752 43 37142ft 531kts
06-Dec-18 10:24 38.989741 -106.299913 43 37138ft 511kts
06-Dec-18 10:25 39.084563 -106.167724 43 36859ft 495kts
06-Dec-18 10:26 39.158833 -106.021606 60 33335ft 512kts
06-Dec-18 10:27 39.228340 -105.862336 58 29608ft 521kts
06-Dec-18 10:28 39.298267 -105.702784 58 26226ft 504kts
06-Dec-18 10:29 39.364957 -105.550408 58 23255ft 478kts
06-Dec-18 10:30 39.431499 -105.412285 53 20885ft 443kts
06-Dec-18 10:31 39.497033 -105.287928 54 18813ft 412kts
06-Dec-18 10:32 39.559437 -105.168915 54 17009ft 380kts
06-Dec-18 10:33 39.613210 -105.065895 54 17015ft 335kts
06-Dec-18 10:34 39.665267 -104.965980 54 16417ft 342kts
06-Dec-18 10:35 39.724021 -104.872114 30 14543ft 337kts
06-Dec-18 10:36 39.810045 -104.840822 359 12910ft 319kts
06-Dec-18 10:37 39.896881 -104.839331 358 11459ft 308kts
06-Dec-18 10:38 39.976352 -104.839294 357 11047ft 266kts
06-Dec-18 10:39 40.045001 -104.840091 357 11076ft 242kts
06-Dec-18 10:40 40.110437 -104.838906 359 11077ft 243kts
06-Dec-18 10:41 40.169623 -104.807342 64 10865ft 249kts
06-Dec-18 10:42 40.168506 -104.722691 135 10051ft 240kts
06-Dec-18 10:43 40.112526 -104.685396 179 9191ft 234kts
06-Dec-18 10:44 40.048387 -104.685114 181 8325ft 238kts
06-Dec-18 10:45 39.986578 -104.685808 180 7089ft 197kts
06-Dec-18 10:46 39.941775 -104.686684 179 6093ft 149kts
06-Dec-18 10:47 39.899562 -104.686804 180 5430ft 154kts
06-Dec-18 10:48 39.873856 -104.686826 160 5342ft 51kts
06-Dec-18 10:49 39.870005 -104.683785 181 5354ft 27kts
06-Dec-18 10:50 39.864637 -104.681217 67 5338ft 22kts
06-Dec-18 10:51 39.863927 -104.675682 179 5373ft 7kts
06-Dec-18 10:52 39.863570 -104.675690 180 5373ft 0kts

Navigation Log

Ident Type
Flight plan parsing failed, navigation log unavailable